sensor_id;sensor_type;location;lat;lon;timestamp;P1;durP1;ratioP1;P2;durP2;ratioP2
4309;SDS011;2168;53.576;9.980;2023-08-06T00:00:08;1.40;;;1.40;;
4309;SDS011;2168;53.576;9.980;2023-08-06T00:02:33;0.50;;;0.50;;
4309;SDS011;2168;53.576;9.980;2023-08-06T00:04:58;0.60;;;0.60;;
4309;SDS011;2168;53.576;9.980;2023-08-06T00:07:23;0.68;;;0.68;;
4309;SDS011;2168;53.576;9.980;2023-08-06T00:09:49;0.70;;;0.70;;
4309;SDS011;2168;53.576;9.980;2023-08-06T00:12:14;0.70;;;0.70;;
4309;SDS011;2168;53.576;9.980;2023-08-06T00:14:39;0.70;;;0.70;;
4309;SDS011;2168;53.576;9.980;2023-08-06T00:17:04;0.60;;;0.60;;
4309;SDS011;2168;53.576;9.980;2023-08-06T00:19:30;0.60;;;0.60;;
4309;SDS011;2168;53.576;9.980;2023-08-06T00:21:55;0.53;;;0.53;;
4309;SDS011;2168;53.576;9.980;2023-08-06T00:24:20;0.60;;;0.60;;
4309;SDS011;2168;53.576;9.980;2023-08-06T00:26:46;0.50;;;0.50;;
4309;SDS011;2168;53.576;9.980;2023-08-06T00:29:11;0.70;;;0.70;;
4309;SDS011;2168;53.576;9.980;2023-08-06T00:31:36;0.60;;;0.60;;
4309;SDS011;2168;53.576;9.980;2023-08-06T00:34:01;0.67;;;0.67;;
4309;SDS011;2168;53.576;9.980;2023-08-06T00:36:26;0.70;;;0.70;;
4309;SDS011;2168;53.576;9.980;2023-08-06T00:38:51;0.60;;;0.60;;
4309;SDS011;2168;53.576;9.980;2023-08-06T00:41:17;0.60;;;0.60;;
4309;SDS011;2168;53.576;9.980;2023-08-06T00:43:42;0.60;;;0.60;;
4309;SDS011;2168;53.576;9.980;2023-08-06T00:46:07;0.70;;;0.70;;
4309;SDS011;2168;53.576;9.980;2023-08-06T00:48:33;0.77;;;0.77;;
4309;SDS011;2168;53.576;9.980;2023-08-06T00:50:58;0.53;;;0.53;;
4309;SDS011;2168;53.576;9.980;2023-08-06T00:53:23;0.50;;;0.50;;
4309;SDS011;2168;53.576;9.980;2023-08-06T00:55:49;0.70;;;0.70;;
4309;SDS011;2168;53.576;9.980;2023-08-06T00:58:15;0.80;;;0.80;;
4309;SDS011;2168;53.576;9.980;2023-08-06T01:00:40;0.70;;;0.70;;
4309;SDS011;2168;53.576;9.980;2023-08-06T01:03:05;0.80;;;0.80;;
4309;SDS011;2168;53.576;9.980;2023-08-06T01:05:31;0.60;;;0.60;;
4309;SDS011;2168;53.576;9.980;2023-08-06T01:08:12;0.70;;;0.70;;
4309;SDS011;2168;53.576;9.980;2023-08-06T01:10:48;0.60;;;0.60;;
4309;SDS011;2168;53.576;9.980;2023-08-06T01:15:54;0.60;;;0.60;;
4309;SDS011;2168;53.576;9.980;2023-08-06T01:18:22;0.73;;;0.73;;
4309;SDS011;2168;53.576;9.980;2023-08-06T01:20:47;0.90;;;0.90;;
4309;SDS011;2168;53.576;9.980;2023-08-06T01:23:12;0.70;;;0.70;;
4309;SDS011;2168;53.576;9.980;2023-08-06T01:26:02;0.70;;;0.70;;
4309;SDS011;2168;53.576;9.980;2023-08-06T01:28:26;0.53;;;0.53;;
4309;SDS011;2168;53.576;9.980;2023-08-06T01:30:52;0.70;;;0.70;;
4309;SDS011;2168;53.576;9.980;2023-08-06T01:33:20;0.50;;;0.50;;
4309;SDS011;2168;53.576;9.980;2023-08-06T01:35:46;0.70;;;0.70;;
4309;SDS011;2168;53.576;9.980;2023-08-06T01:38:12;0.50;;;0.50;;
4309;SDS011;2168;53.576;9.980;2023-08-06T01:40:38;0.50;;;0.50;;
4309;SDS011;2168;53.576;9.980;2023-08-06T01:43:03;0.60;;;0.60;;
4309;SDS011;2168;53.576;9.980;2023-08-06T01:45:28;0.70;;;0.70;;
4309;SDS011;2168;53.576;9.980;2023-08-06T01:47:53;0.53;;;0.53;;
4309;SDS011;2168;53.576;9.980;2023-08-06T01:50:18;0.70;;;0.70;;
4309;SDS011;2168;53.576;9.980;2023-08-06T01:52:44;0.70;;;0.70;;
4309;SDS011;2168;53.576;9.980;2023-08-06T01:55:09;0.40;;;0.40;;
4309;SDS011;2168;53.576;9.980;2023-08-06T01:57:34;0.67;;;0.67;;
4309;SDS011;2168;53.576;9.980;2023-08-06T01:59:59;0.60;;;0.60;;
4309;SDS011;2168;53.576;9.980;2023-08-06T02:02:24;0.50;;;0.50;;
4309;SDS011;2168;53.576;9.980;2023-08-06T02:04:49;0.60;;;0.60;;
4309;SDS011;2168;53.576;9.980;2023-08-06T02:07:15;0.53;;;0.53;;
4309;SDS011;2168;53.576;9.980;2023-08-06T02:09:40;0.60;;;0.60;;
4309;SDS011;2168;53.576;9.980;2023-08-06T02:12:05;0.60;;;0.60;;
4309;SDS011;2168;53.576;9.980;2023-08-06T02:14:30;0.60;;;0.60;;
4309;SDS011;2168;53.576;9.980;2023-08-06T02:16:56;0.60;;;0.60;;
4309;SDS011;2168;53.576;9.980;2023-08-06T02:19:21;0.50;;;0.50;;
4309;SDS011;2168;53.576;9.980;2023-08-06T02:21:46;0.60;;;0.60;;
4309;SDS011;2168;53.576;9.980;2023-08-06T02:24:11;0.67;;;0.67;;
4309;SDS011;2168;53.576;9.980;2023-08-06T02:26:36;0.60;;;0.60;;
4309;SDS011;2168;53.576;9.980;2023-08-06T02:29:01;0.60;;;0.60;;
4309;SDS011;2168;53.576;9.980;2023-08-06T02:31:27;0.60;;;0.60;;
4309;SDS011;2168;53.576;9.980;2023-08-06T02:33:52;0.60;;;0.60;;
4309;SDS011;2168;53.576;9.980;2023-08-06T02:36:18;0.50;;;0.50;;
4309;SDS011;2168;53.576;9.980;2023-08-06T02:38:44;0.70;;;0.70;;
4309;SDS011;2168;53.576;9.980;2023-08-06T02:41:09;0.60;;;0.60;;
4309;SDS011;2168;53.576;9.980;2023-08-06T02:43:34;0.70;;;0.70;;
4309;SDS011;2168;53.576;9.980;2023-08-06T02:45:59;0.60;;;0.60;;
4309;SDS011;2168;53.576;9.980;2023-08-06T02:48:24;0.70;;;0.70;;
4309;SDS011;2168;53.576;9.980;2023-08-06T02:50:50;0.50;;;0.50;;
4309;SDS011;2168;53.576;9.980;2023-08-06T02:53:15;0.60;;;0.60;;
4309;SDS011;2168;53.576;9.980;2023-08-06T02:55:45;0.50;;;0.50;;
4309;SDS011;2168;53.576;9.980;2023-08-06T02:58:11;0.60;;;0.60;;
4309;SDS011;2168;53.576;9.980;2023-08-06T03:00:36;0.57;;;0.57;;
4309;SDS011;2168;53.576;9.980;2023-08-06T03:03:01;0.50;;;0.50;;
4309;SDS011;2168;53.576;9.980;2023-08-06T03:05:26;0.50;;;0.50;;
4309;SDS011;2168;53.576;9.980;2023-08-06T03:07:52;0.40;;;0.40;;
4309;SDS011;2168;53.576;9.980;2023-08-06T03:10:17;0.60;;;0.60;;
4309;SDS011;2168;53.576;9.980;2023-08-06T03:12:42;0.60;;;0.60;;
4309;SDS011;2168;53.576;9.980;2023-08-06T03:15:07;0.53;;;0.53;;
4309;SDS011;2168;53.576;9.980;2023-08-06T03:17:33;0.50;;;0.50;;
4309;SDS011;2168;53.576;9.980;2023-08-06T03:19:58;0.60;;;0.60;;
4309;SDS011;2168;53.576;9.980;2023-08-06T03:22:23;0.60;;;0.60;;
4309;SDS011;2168;53.576;9.980;2023-08-06T03:24:50;0.60;;;0.60;;
4309;SDS011;2168;53.576;9.980;2023-08-06T03:27:15;0.60;;;0.60;;
4309;SDS011;2168;53.576;9.980;2023-08-06T03:29:40;0.60;;;0.60;;
4309;SDS011;2168;53.576;9.980;2023-08-06T03:32:06;0.50;;;0.50;;
4309;SDS011;2168;53.576;9.980;2023-08-06T03:34:31;0.40;;;0.40;;
4309;SDS011;2168;53.576;9.980;2023-08-06T03:36:56;0.60;;;0.60;;
4309;SDS011;2168;53.576;9.980;2023-08-06T03:39:21;0.60;;;0.60;;
4309;SDS011;2168;53.576;9.980;2023-08-06T03:41:46;0.97;;;0.97;;
4309;SDS011;2168;53.576;9.980;2023-08-06T03:44:11;0.60;;;0.60;;
4309;SDS011;2168;53.576;9.980;2023-08-06T03:46:37;0.70;;;0.70;;
4309;SDS011;2168;53.576;9.980;2023-08-06T03:49:02;0.60;;;0.60;;
4309;SDS011;2168;53.576;9.980;2023-08-06T03:51:27;0.50;;;0.50;;
4309;SDS011;2168;53.576;9.980;2023-08-06T03:53:53;0.50;;;0.50;;
4309;SDS011;2168;53.576;9.980;2023-08-06T03:56:18;0.40;;;0.40;;
4309;SDS011;2168;53.576;9.980;2023-08-06T03:58:43;0.50;;;0.50;;
4309;SDS011;2168;53.576;9.980;2023-08-06T04:01:09;0.60;;;0.60;;
4309;SDS011;2168;53.576;9.980;2023-08-06T04:03:34;0.50;;;0.50;;
4309;SDS011;2168;53.576;9.980;2023-08-06T04:05:59;0.40;;;0.40;;
4309;SDS011;2168;53.576;9.980;2023-08-06T04:08:26;0.50;;;0.50;;
4309;SDS011;2168;53.576;9.980;2023-08-06T04:10:51;1.13;;;1.13;;
4309;SDS011;2168;53.576;9.980;2023-08-06T04:13:17;0.70;;;0.70;;
4309;SDS011;2168;53.576;9.980;2023-08-06T04:15:42;0.57;;;0.57;;
4309;SDS011;2168;53.576;9.980;2023-08-06T04:18:07;0.50;;;0.50;;
4309;SDS011;2168;53.576;9.980;2023-08-06T04:20:32;0.57;;;0.57;;
4309;SDS011;2168;53.576;9.980;2023-08-06T04:22:58;0.50;;;0.50;;
4309;SDS011;2168;53.576;9.980;2023-08-06T04:25:23;0.50;;;0.50;;
4309;SDS011;2168;53.576;9.980;2023-08-06T04:27:48;0.50;;;0.50;;
4309;SDS011;2168;53.576;9.980;2023-08-06T04:30:13;0.60;;;0.60;;
4309;SDS011;2168;53.576;9.980;2023-08-06T04:32:39;0.50;;;0.50;;
4309;SDS011;2168;53.576;9.980;2023-08-06T04:35:04;0.63;;;0.63;;
4309;SDS011;2168;53.576;9.980;2023-08-06T04:37:29;0.60;;;0.60;;
4309;SDS011;2168;53.576;9.980;2023-08-06T04:39:54;0.50;;;0.50;;
4309;SDS011;2168;53.576;9.980;2023-08-06T04:42:20;0.60;;;0.60;;
4309;SDS011;2168;53.576;9.980;2023-08-06T04:44:45;0.60;;;0.60;;
4309;SDS011;2168;53.576;9.980;2023-08-06T04:47:10;0.70;;;0.70;;
4309;SDS011;2168;53.576;9.980;2023-08-06T04:49:35;0.70;;;0.70;;
4309;SDS011;2168;53.576;9.980;2023-08-06T04:52:00;0.50;;;0.50;;
4309;SDS011;2168;53.576;9.980;2023-08-06T04:54:25;0.73;;;0.73;;
4309;SDS011;2168;53.576;9.980;2023-08-06T04:56:51;0.60;;;0.60;;
4309;SDS011;2168;53.576;9.980;2023-08-06T04:59:16;0.50;;;0.50;;
4309;SDS011;2168;53.576;9.980;2023-08-06T05:01:41;0.50;;;0.50;;
4309;SDS011;2168;53.576;9.980;2023-08-06T05:04:06;0.50;;;0.50;;
4309;SDS011;2168;53.576;9.980;2023-08-06T05:06:31;0.70;;;0.70;;
4309;SDS011;2168;53.576;9.980;2023-08-06T05:08:56;0.50;;;0.50;;
4309;SDS011;2168;53.576;9.980;2023-08-06T05:11:21;0.70;;;0.70;;
4309;SDS011;2168;53.576;9.980;2023-08-06T05:13:47;0.53;;;0.53;;
4309;SDS011;2168;53.576;9.980;2023-08-06T05:16:12;0.50;;;0.50;;
4309;SDS011;2168;53.576;9.980;2023-08-06T05:18:37;0.60;;;0.60;;
4309;SDS011;2168;53.576;9.980;2023-08-06T05:21:02;1.13;;;1.13;;
4309;SDS011;2168;53.576;9.980;2023-08-06T05:23:28;0.60;;;0.60;;
4309;SDS011;2168;53.576;9.980;2023-08-06T05:25:53;0.60;;;0.60;;
4309;SDS011;2168;53.576;9.980;2023-08-06T05:28:18;0.60;;;0.60;;
4309;SDS011;2168;53.576;9.980;2023-08-06T05:30:43;0.67;;;0.67;;
4309;SDS011;2168;53.576;9.980;2023-08-06T05:33:08;0.60;;;0.60;;
4309;SDS011;2168;53.576;9.980;2023-08-06T05:35:34;0.60;;;0.60;;
4309;SDS011;2168;53.576;9.980;2023-08-06T05:37:59;0.50;;;0.50;;
4309;SDS011;2168;53.576;9.980;2023-08-06T05:40:24;0.50;;;0.50;;
4309;SDS011;2168;53.576;9.980;2023-08-06T05:42:50;0.60;;;0.60;;
4309;SDS011;2168;53.576;9.980;2023-08-06T05:45:15;0.60;;;0.60;;
4309;SDS011;2168;53.576;9.980;2023-08-06T05:47:40;0.40;;;0.40;;
4309;SDS011;2168;53.576;9.980;2023-08-06T05:50:06;0.40;;;0.40;;
4309;SDS011;2168;53.576;9.980;2023-08-06T05:52:31;0.50;;;0.50;;
4309;SDS011;2168;53.576;9.980;2023-08-06T05:54:56;0.50;;;0.50;;
4309;SDS011;2168;53.576;9.980;2023-08-06T05:57:22;0.90;;;0.90;;
4309;SDS011;2168;53.576;9.980;2023-08-06T05:59:47;0.50;;;0.50;;
4309;SDS011;2168;53.576;9.980;2023-08-06T06:02:12;0.50;;;0.50;;
4309;SDS011;2168;53.576;9.980;2023-08-06T06:04:37;0.60;;;0.60;;
4309;SDS011;2168;53.576;9.980;2023-08-06T06:07:02;0.60;;;0.60;;
4309;SDS011;2168;53.576;9.980;2023-08-06T06:09:28;0.50;;;0.50;;
4309;SDS011;2168;53.576;9.980;2023-08-06T06:11:53;0.80;;;0.80;;
4309;SDS011;2168;53.576;9.980;2023-08-06T06:14:18;1.97;;;1.97;;
4309;SDS011;2168;53.576;9.980;2023-08-06T06:16:43;0.40;;;0.40;;
4309;SDS011;2168;53.576;9.980;2023-08-06T06:19:09;0.50;;;0.50;;
4309;SDS011;2168;53.576;9.980;2023-08-06T06:21:34;0.40;;;0.40;;
4309;SDS011;2168;53.576;9.980;2023-08-06T06:23:59;0.60;;;0.60;;
4309;SDS011;2168;53.576;9.980;2023-08-06T06:26:24;0.60;;;0.60;;
4309;SDS011;2168;53.576;9.980;2023-08-06T06:28:49;0.53;;;0.53;;
4309;SDS011;2168;53.576;9.980;2023-08-06T06:31:15;0.50;;;0.50;;
4309;SDS011;2168;53.576;9.980;2023-08-06T06:33:40;0.50;;;0.50;;
4309;SDS011;2168;53.576;9.980;2023-08-06T06:36:05;0.40;;;0.40;;
4309;SDS011;2168;53.576;9.980;2023-08-06T06:38:32;0.60;;;0.60;;
4309;SDS011;2168;53.576;9.980;2023-08-06T06:40:57;0.60;;;0.60;;
4309;SDS011;2168;53.576;9.980;2023-08-06T06:43:23;0.53;;;0.53;;
4309;SDS011;2168;53.576;9.980;2023-08-06T06:45:58;0.60;;;0.60;;
4309;SDS011;2168;53.576;9.980;2023-08-06T06:48:24;1.17;;;1.17;;
4309;SDS011;2168;53.576;9.980;2023-08-06T06:50:50;0.70;;;0.70;;
4309;SDS011;2168;53.576;9.980;2023-08-06T06:53:15;0.50;;;0.50;;
4309;SDS011;2168;53.576;9.980;2023-08-06T06:55:40;0.50;;;0.50;;
4309;SDS011;2168;53.576;9.980;2023-08-06T06:58:05;0.50;;;0.50;;
4309;SDS011;2168;53.576;9.980;2023-08-06T07:00:30;0.40;;;0.40;;
4309;SDS011;2168;53.576;9.980;2023-08-06T07:02:55;0.50;;;0.50;;
4309;SDS011;2168;53.576;9.980;2023-08-06T07:05:20;0.50;;;0.50;;
4309;SDS011;2168;53.576;9.980;2023-08-06T07:07:46;0.43;;;0.43;;
4309;SDS011;2168;53.576;9.980;2023-08-06T07:10:11;0.50;;;0.50;;
4309;SDS011;2168;53.576;9.980;2023-08-06T07:12:36;0.60;;;0.60;;
4309;SDS011;2168;53.576;9.980;2023-08-06T07:15:03;0.60;;;0.60;;
4309;SDS011;2168;53.576;9.980;2023-08-06T07:17:28;0.50;;;0.50;;
4309;SDS011;2168;53.576;9.980;2023-08-06T07:19:53;0.40;;;0.40;;
4309;SDS011;2168;53.576;9.980;2023-08-06T07:22:18;0.50;;;0.50;;
4309;SDS011;2168;53.576;9.980;2023-08-06T07:24:43;0.50;;;0.50;;
4309;SDS011;2168;53.576;9.980;2023-08-06T07:27:08;0.40;;;0.40;;
4309;SDS011;2168;53.576;9.980;2023-08-06T07:29:34;0.40;;;0.40;;
4309;SDS011;2168;53.576;9.980;2023-08-06T07:31:59;0.50;;;0.50;;
4309;SDS011;2168;53.576;9.980;2023-08-06T07:34:24;0.70;;;0.70;;
4309;SDS011;2168;53.576;9.980;2023-08-06T07:36:50;0.40;;;0.40;;
4309;SDS011;2168;53.576;9.980;2023-08-06T07:39:15;0.50;;;0.50;;
4309;SDS011;2168;53.576;9.980;2023-08-06T07:41:41;0.50;;;0.50;;
4309;SDS011;2168;53.576;9.980;2023-08-06T07:44:06;0.50;;;0.50;;
4309;SDS011;2168;53.576;9.980;2023-08-06T07:46:32;0.77;;;0.77;;
4309;SDS011;2168;53.576;9.980;2023-08-06T07:48:57;0.53;;;0.53;;
4309;SDS011;2168;53.576;9.980;2023-08-06T07:51:22;0.60;;;0.60;;
4309;SDS011;2168;53.576;9.980;2023-08-06T07:53:47;0.57;;;0.57;;
4309;SDS011;2168;53.576;9.980;2023-08-06T07:56:12;0.73;;;0.73;;
4309;SDS011;2168;53.576;9.980;2023-08-06T07:58:38;1.20;;;1.20;;
4309;SDS011;2168;53.576;9.980;2023-08-06T08:01:03;0.50;;;0.50;;
4309;SDS011;2168;53.576;9.980;2023-08-06T08:03:28;0.40;;;0.40;;
4309;SDS011;2168;53.576;9.980;2023-08-06T08:05:54;0.60;;;0.60;;
4309;SDS011;2168;53.576;9.980;2023-08-06T08:08:22;1.03;;;1.03;;
4309;SDS011;2168;53.576;9.980;2023-08-06T08:10:47;0.63;;;0.63;;
4309;SDS011;2168;53.576;9.980;2023-08-06T08:13:12;0.63;;;0.63;;
4309;SDS011;2168;53.576;9.980;2023-08-06T08:15:37;0.70;;;0.70;;
4309;SDS011;2168;53.576;9.980;2023-08-06T08:18:03;1.00;;;1.00;;
4309;SDS011;2168;53.576;9.980;2023-08-06T08:20:28;0.50;;;0.50;;
4309;SDS011;2168;53.576;9.980;2023-08-06T08:22:57;0.80;;;0.80;;
4309;SDS011;2168;53.576;9.980;2023-08-06T08:25:22;1.00;;;1.00;;
4309;SDS011;2168;53.576;9.980;2023-08-06T08:27:47;0.70;;;0.70;;
4309;SDS011;2168;53.576;9.980;2023-08-06T08:30:12;1.03;;;1.03;;
4309;SDS011;2168;53.576;9.980;2023-08-06T08:32:37;0.77;;;0.77;;
4309;SDS011;2168;53.576;9.980;2023-08-06T08:35:03;1.20;;;1.20;;
4309;SDS011;2168;53.576;9.980;2023-08-06T08:37:28;1.07;;;1.07;;
4309;SDS011;2168;53.576;9.980;2023-08-06T08:39:53;0.60;;;0.60;;
4309;SDS011;2168;53.576;9.980;2023-08-06T08:42:18;0.70;;;0.70;;
4309;SDS011;2168;53.576;9.980;2023-08-06T08:44:44;1.00;;;1.00;;
4309;SDS011;2168;53.576;9.980;2023-08-06T08:47:10;0.80;;;0.80;;
4309;SDS011;2168;53.576;9.980;2023-08-06T08:49:35;0.60;;;0.60;;
4309;SDS011;2168;53.576;9.980;2023-08-06T08:52:01;1.30;;;1.30;;
4309;SDS011;2168;53.576;9.980;2023-08-06T08:54:26;0.60;;;0.60;;
4309;SDS011;2168;53.576;9.980;2023-08-06T08:56:53;0.67;;;0.67;;
4309;SDS011;2168;53.576;9.980;2023-08-06T08:59:20;0.90;;;0.90;;
4309;SDS011;2168;53.576;9.980;2023-08-06T09:01:45;1.10;;;1.10;;
4309;SDS011;2168;53.576;9.980;2023-08-06T09:04:11;0.60;;;0.60;;
4309;SDS011;2168;53.576;9.980;2023-08-06T09:06:37;0.80;;;0.80;;
4309;SDS011;2168;53.576;9.980;2023-08-06T09:09:06;1.00;;;1.00;;
4309;SDS011;2168;53.576;9.980;2023-08-06T09:11:34;0.70;;;0.70;;
4309;SDS011;2168;53.576;9.980;2023-08-06T09:14:04;1.13;;;1.13;;
4309;SDS011;2168;53.576;9.980;2023-08-06T09:16:32;0.80;;;0.80;;
4309;SDS011;2168;53.576;9.980;2023-08-06T09:19:00;0.97;;;0.97;;
4309;SDS011;2168;53.576;9.980;2023-08-06T09:21:31;0.70;;;0.70;;
4309;SDS011;2168;53.576;9.980;2023-08-06T09:23:56;1.20;;;1.20;;
4309;SDS011;2168;53.576;9.980;2023-08-06T09:26:23;0.60;;;0.60;;
4309;SDS011;2168;53.576;9.980;2023-08-06T09:28:49;1.00;;;1.00;;
4309;SDS011;2168;53.576;9.980;2023-08-06T09:31:17;0.70;;;0.70;;
4309;SDS011;2168;53.576;9.980;2023-08-06T09:33:42;0.70;;;0.70;;
4309;SDS011;2168;53.576;9.980;2023-08-06T09:36:12;0.53;;;0.53;;
4309;SDS011;2168;53.576;9.980;2023-08-06T09:38:38;0.70;;;0.70;;
4309;SDS011;2168;53.576;9.980;2023-08-06T09:41:04;0.50;;;0.50;;
4309;SDS011;2168;53.576;9.980;2023-08-06T09:43:29;0.80;;;0.80;;
4309;SDS011;2168;53.576;9.980;2023-08-06T09:45:55;1.10;;;1.10;;
4309;SDS011;2168;53.576;9.980;2023-08-06T09:48:20;0.77;;;0.77;;
4309;SDS011;2168;53.576;9.980;2023-08-06T09:50:49;0.70;;;0.70;;
4309;SDS011;2168;53.576;9.980;2023-08-06T09:53:17;0.80;;;0.80;;
4309;SDS011;2168;53.576;9.980;2023-08-06T09:55:43;0.73;;;0.73;;
4309;SDS011;2168;53.576;9.980;2023-08-06T09:58:09;0.60;;;0.60;;
4309;SDS011;2168;53.576;9.980;2023-08-06T10:00:34;0.60;;;0.60;;
4309;SDS011;2168;53.576;9.980;2023-08-06T10:03:00;1.30;;;1.30;;
4309;SDS011;2168;53.576;9.980;2023-08-06T10:05:25;0.80;;;0.80;;
4309;SDS011;2168;53.576;9.980;2023-08-06T10:07:51;0.80;;;0.80;;
4309;SDS011;2168;53.576;9.980;2023-08-06T10:10:16;1.20;;;1.20;;
4309;SDS011;2168;53.576;9.980;2023-08-06T10:12:51;0.60;;;0.60;;
4309;SDS011;2168;53.576;9.980;2023-08-06T10:15:19;0.90;;;0.90;;
4309;SDS011;2168;53.576;9.980;2023-08-06T10:17:46;0.80;;;0.80;;
4309;SDS011;2168;53.576;9.980;2023-08-06T10:20:12;0.83;;;0.83;;
4309;SDS011;2168;53.576;9.980;2023-08-06T10:22:37;0.60;;;0.60;;
4309;SDS011;2168;53.576;9.980;2023-08-06T10:25:07;0.73;;;0.73;;
4309;SDS011;2168;53.576;9.980;2023-08-06T10:28:14;0.93;;;0.93;;
4309;SDS011;2168;53.576;9.980;2023-08-06T10:32:50;0.60;;;0.60;;
4309;SDS011;2168;53.576;9.980;2023-08-06T10:35:27;0.90;;;0.90;;
4309;SDS011;2168;53.576;9.980;2023-08-06T10:37:52;0.90;;;0.90;;
4309;SDS011;2168;53.576;9.980;2023-08-06T10:40:20;1.27;;;1.27;;
4309;SDS011;2168;53.576;9.980;2023-08-06T10:42:46;0.97;;;0.97;;
4309;SDS011;2168;53.576;9.980;2023-08-06T10:45:12;1.10;;;1.10;;
4309;SDS011;2168;53.576;9.980;2023-08-06T10:47:40;0.60;;;0.60;;
4309;SDS011;2168;53.576;9.980;2023-08-06T10:50:10;0.80;;;0.80;;
4309;SDS011;2168;53.576;9.980;2023-08-06T10:52:35;1.10;;;1.10;;
4309;SDS011;2168;53.576;9.980;2023-08-06T10:55:00;0.50;;;0.50;;
4309;SDS011;2168;53.576;9.980;2023-08-06T10:57:26;0.80;;;0.80;;
4309;SDS011;2168;53.576;9.980;2023-08-06T10:59:51;0.57;;;0.57;;
4309;SDS011;2168;53.576;9.980;2023-08-06T11:02:16;0.80;;;0.80;;
4309;SDS011;2168;53.576;9.980;2023-08-06T11:04:41;0.70;;;0.70;;
4309;SDS011;2168;53.576;9.980;2023-08-06T11:07:06;1.03;;;1.03;;
4309;SDS011;2168;53.576;9.980;2023-08-06T11:09:32;0.73;;;0.73;;
4309;SDS011;2168;53.576;9.980;2023-08-06T11:11:57;0.80;;;0.80;;
4309;SDS011;2168;53.576;9.980;2023-08-06T11:14:22;1.00;;;1.00;;
4309;SDS011;2168;53.576;9.980;2023-08-06T11:16:47;0.70;;;0.70;;
4309;SDS011;2168;53.576;9.980;2023-08-06T11:19:13;0.70;;;0.70;;
4309;SDS011;2168;53.576;9.980;2023-08-06T11:21:40;0.60;;;0.60;;
4309;SDS011;2168;53.576;9.980;2023-08-06T11:24:05;0.90;;;0.90;;
4309;SDS011;2168;53.576;9.980;2023-08-06T11:26:30;1.60;;;1.60;;
4309;SDS011;2168;53.576;9.980;2023-08-06T11:28:55;0.77;;;0.77;;
4309;SDS011;2168;53.576;9.980;2023-08-06T11:31:23;0.67;;;0.67;;
4309;SDS011;2168;53.576;9.980;2023-08-06T11:33:54;0.80;;;0.80;;
4309;SDS011;2168;53.576;9.980;2023-08-06T11:36:32;0.80;;;0.80;;
4309;SDS011;2168;53.576;9.980;2023-08-06T11:38:59;0.70;;;0.70;;
4309;SDS011;2168;53.576;9.980;2023-08-06T11:41:24;0.70;;;0.70;;
4309;SDS011;2168;53.576;9.980;2023-08-06T11:43:49;0.80;;;0.80;;
4309;SDS011;2168;53.576;9.980;2023-08-06T11:46:14;0.60;;;0.60;;
4309;SDS011;2168;53.576;9.980;2023-08-06T11:48:52;1.17;;;1.17;;
4309;SDS011;2168;53.576;9.980;2023-08-06T11:51:18;0.80;;;0.80;;
4309;SDS011;2168;53.576;9.980;2023-08-06T11:53:46;0.80;;;0.80;;
4309;SDS011;2168;53.576;9.980;2023-08-06T11:56:13;0.73;;;0.73;;
4309;SDS011;2168;53.576;9.980;2023-08-06T11:58:40;0.93;;;0.93;;
4309;SDS011;2168;53.576;9.980;2023-08-06T12:01:05;0.80;;;0.80;;
4309;SDS011;2168;53.576;9.980;2023-08-06T12:03:30;0.73;;;0.73;;
4309;SDS011;2168;53.576;9.980;2023-08-06T12:05:56;0.70;;;0.70;;
4309;SDS011;2168;53.576;9.980;2023-08-06T12:08:25;0.73;;;0.73;;
4309;SDS011;2168;53.576;9.980;2023-08-06T12:10:51;0.80;;;0.80;;
4309;SDS011;2168;53.576;9.980;2023-08-06T12:13:18;0.90;;;0.90;;
4309;SDS011;2168;53.576;9.980;2023-08-06T12:15:43;0.77;;;0.77;;
4309;SDS011;2168;53.576;9.980;2023-08-06T12:18:09;0.50;;;0.50;;
4309;SDS011;2168;53.576;9.980;2023-08-06T12:20:34;0.80;;;0.80;;
4309;SDS011;2168;53.576;9.980;2023-08-06T12:22:59;0.70;;;0.70;;
4309;SDS011;2168;53.576;9.980;2023-08-06T12:25:25;0.60;;;0.60;;
4309;SDS011;2168;53.576;9.980;2023-08-06T12:27:50;0.90;;;0.90;;
4309;SDS011;2168;53.576;9.980;2023-08-06T12:30:15;0.60;;;0.60;;
4309;SDS011;2168;53.576;9.980;2023-08-06T12:32:40;0.73;;;0.73;;
4309;SDS011;2168;53.576;9.980;2023-08-06T12:35:06;0.80;;;0.80;;
4309;SDS011;2168;53.576;9.980;2023-08-06T12:37:32;0.73;;;0.73;;
4309;SDS011;2168;53.576;9.980;2023-08-06T12:39:58;1.00;;;1.00;;
4309;SDS011;2168;53.576;9.980;2023-08-06T12:42:23;0.70;;;0.70;;
4309;SDS011;2168;53.576;9.980;2023-08-06T12:44:49;1.53;;;1.53;;
4309;SDS011;2168;53.576;9.980;2023-08-06T12:47:15;1.23;;;1.23;;
4309;SDS011;2168;53.576;9.980;2023-08-06T12:49:41;0.70;;;0.70;;
4309;SDS011;2168;53.576;9.980;2023-08-06T12:52:06;0.77;;;0.77;;
4309;SDS011;2168;53.576;9.980;2023-08-06T12:54:32;0.80;;;0.80;;
4309;SDS011;2168;53.576;9.980;2023-08-06T12:57:03;0.70;;;0.70;;
4309;SDS011;2168;53.576;9.980;2023-08-06T12:59:29;0.70;;;0.70;;
4309;SDS011;2168;53.576;9.980;2023-08-06T13:01:54;0.70;;;0.70;;
4309;SDS011;2168;53.576;9.980;2023-08-06T13:04:19;0.50;;;0.50;;
4309;SDS011;2168;53.576;9.980;2023-08-06T13:06:45;0.60;;;0.60;;
4309;SDS011;2168;53.576;9.980;2023-08-06T13:09:10;0.73;;;0.73;;
4309;SDS011;2168;53.576;9.980;2023-08-06T13:11:36;1.30;;;1.30;;
4309;SDS011;2168;53.576;9.980;2023-08-06T13:14:06;0.80;;;0.80;;
4309;SDS011;2168;53.576;9.980;2023-08-06T13:16:32;0.90;;;0.90;;
4309;SDS011;2168;53.576;9.980;2023-08-06T13:18:57;0.60;;;0.60;;
4309;SDS011;2168;53.576;9.980;2023-08-06T13:21:23;0.63;;;0.63;;
4309;SDS011;2168;53.576;9.980;2023-08-06T13:23:48;1.30;;;1.30;;
4309;SDS011;2168;53.576;9.980;2023-08-06T13:26:13;0.70;;;0.70;;
4309;SDS011;2168;53.576;9.980;2023-08-06T13:28:40;1.43;;;1.43;;
4309;SDS011;2168;53.576;9.980;2023-08-06T13:31:05;1.13;;;1.13;;
4309;SDS011;2168;53.576;9.980;2023-08-06T13:33:30;0.87;;;0.87;;
4309;SDS011;2168;53.576;9.980;2023-08-06T13:35:56;1.17;;;1.17;;
4309;SDS011;2168;53.576;9.980;2023-08-06T13:38:21;1.07;;;1.07;;
4309;SDS011;2168;53.576;9.980;2023-08-06T13:40:46;1.20;;;1.20;;
4309;SDS011;2168;53.576;9.980;2023-08-06T13:43:11;1.10;;;1.10;;
4309;SDS011;2168;53.576;9.980;2023-08-06T13:45:36;0.80;;;0.80;;
4309;SDS011;2168;53.576;9.980;2023-08-06T13:48:03;0.70;;;0.70;;
4309;SDS011;2168;53.576;9.980;2023-08-06T13:50:28;0.73;;;0.73;;
4309;SDS011;2168;53.576;9.980;2023-08-06T13:52:54;0.80;;;0.80;;
4309;SDS011;2168;53.576;9.980;2023-08-06T13:55:20;1.10;;;1.10;;
4309;SDS011;2168;53.576;9.980;2023-08-06T13:57:45;0.70;;;0.70;;
4309;SDS011;2168;53.576;9.980;2023-08-06T14:00:11;0.70;;;0.70;;
4309;SDS011;2168;53.576;9.980;2023-08-06T14:02:36;0.90;;;0.90;;
4309;SDS011;2168;53.576;9.980;2023-08-06T14:05:01;1.23;;;1.23;;
4309;SDS011;2168;53.576;9.980;2023-08-06T14:07:27;1.67;;;1.67;;
4309;SDS011;2168;53.576;9.980;2023-08-06T14:09:52;0.98;;;0.98;;
4309;SDS011;2168;53.576;9.980;2023-08-06T14:12:17;1.60;;;1.60;;
4309;SDS011;2168;53.576;9.980;2023-08-06T14:14:42;1.00;;;1.00;;
4309;SDS011;2168;53.576;9.980;2023-08-06T14:17:08;1.37;;;1.37;;
4309;SDS011;2168;53.576;9.980;2023-08-06T14:19:33;0.90;;;0.90;;
4309;SDS011;2168;53.576;9.980;2023-08-06T14:21:58;0.90;;;0.90;;
4309;SDS011;2168;53.576;9.980;2023-08-06T14:24:23;0.80;;;0.80;;
4309;SDS011;2168;53.576;9.980;2023-08-06T14:26:48;1.00;;;1.00;;
4309;SDS011;2168;53.576;9.980;2023-08-06T14:29:14;0.90;;;0.90;;
4309;SDS011;2168;53.576;9.980;2023-08-06T14:31:39;0.60;;;0.60;;
4309;SDS011;2168;53.576;9.980;2023-08-06T14:34:05;1.70;;;1.70;;
4309;SDS011;2168;53.576;9.980;2023-08-06T14:36:30;1.23;;;1.23;;
4309;SDS011;2168;53.576;9.980;2023-08-06T14:38:55;1.50;;;1.50;;
4309;SDS011;2168;53.576;9.980;2023-08-06T14:41:20;0.70;;;0.70;;
4309;SDS011;2168;53.576;9.980;2023-08-06T14:43:45;0.80;;;0.80;;
4309;SDS011;2168;53.576;9.980;2023-08-06T14:46:11;1.00;;;1.00;;
4309;SDS011;2168;53.576;9.980;2023-08-06T14:48:36;0.50;;;0.50;;
4309;SDS011;2168;53.576;9.980;2023-08-06T14:51:01;1.00;;;1.00;;
4309;SDS011;2168;53.576;9.980;2023-08-06T14:53:26;3.47;;;3.47;;
4309;SDS011;2168;53.576;9.980;2023-08-06T14:55:51;3.03;;;3.03;;
4309;SDS011;2168;53.576;9.980;2023-08-06T14:58:17;2.43;;;2.43;;
4309;SDS011;2168;53.576;9.980;2023-08-06T15:00:42;2.20;;;2.20;;
4309;SDS011;2168;53.576;9.980;2023-08-06T15:03:07;3.40;;;3.40;;
4309;SDS011;2168;53.576;9.980;2023-08-06T15:05:32;2.50;;;2.50;;
4309;SDS011;2168;53.576;9.980;2023-08-06T15:07:58;2.60;;;2.60;;
4309;SDS011;2168;53.576;9.980;2023-08-06T15:10:23;2.57;;;2.57;;